createdAt,value
2017-07-05T00:00:06.840Z,9.20
2017-07-05T00:02:36.446Z,8.68
2017-07-05T00:05:06.227Z,10.10
2017-07-05T00:07:35.954Z,7.87
2017-07-05T00:10:05.733Z,7.85
2017-07-05T00:12:35.474Z,8.60
2017-07-05T00:15:05.229Z,8.43
2017-07-05T00:17:34.952Z,8.82
2017-07-05T00:20:04.771Z,7.85
2017-07-05T00:22:34.486Z,8.38
2017-07-05T00:25:04.255Z,7.57
2017-07-05T00:27:33.846Z,8.35
2017-07-05T00:30:03.637Z,9.85
2017-07-05T00:32:33.167Z,8.10
2017-07-05T00:35:03.092Z,8.43
2017-07-05T00:37:32.817Z,8.35
2017-07-05T00:40:02.612Z,10.18
2017-07-05T00:42:32.332Z,9.10
2017-07-05T00:45:02.344Z,8.70
2017-07-05T00:47:32.046Z,9.02
2017-07-05T00:50:01.906Z,7.80
2017-07-05T00:52:31.621Z,9.68
2017-07-05T00:55:01.355Z,8.07
2017-07-05T00:57:31.096Z,7.40
2017-07-05T01:00:00.814Z,7.72
2017-07-05T01:02:30.370Z,10.80
2017-07-05T01:05:00.229Z,6.87
2017-07-05T01:07:30.043Z,8.45
2017-07-05T01:09:59.791Z,7.03
2017-07-05T01:12:29.542Z,7.18
2017-07-05T01:14:59.413Z,7.80
2017-07-05T01:17:29.153Z,8.07
2017-07-05T01:19:58.889Z,8.00
2017-07-05T01:22:28.609Z,8.00
2017-07-05T01:24:58.921Z,8.75
2017-07-05T01:27:28.654Z,8.38
2017-07-05T01:29:58.374Z,8.45
2017-07-05T01:32:28.112Z,10.10
2017-07-05T01:34:57.842Z,8.30
2017-07-05T01:37:27.580Z,8.23
2017-07-05T01:39:57.310Z,8.23
2017-07-05T01:42:27.095Z,7.15
2017-07-05T01:44:56.842Z,7.55
2017-07-05T01:47:26.574Z,7.97
2017-07-05T01:49:55.966Z,7.70
2017-07-05T01:52:25.501Z,7.78
2017-07-05T01:54:55.249Z,8.00
2017-07-05T01:57:24.631Z,8.30
2017-07-05T01:59:54.373Z,8.15
2017-07-05T02:02:24.106Z,7.60
2017-07-05T02:04:53.837Z,8.10
2017-07-05T02:07:23.563Z,8.30
2017-07-05T02:09:53.319Z,7.37
2017-07-05T02:12:23.025Z,7.32
2017-07-05T02:14:52.765Z,7.18
2017-07-05T02:17:22.483Z,12.57
2017-07-05T02:19:52.213Z,8.00
2017-07-05T02:22:21.952Z,11.90
2017-07-05T02:24:51.685Z,7.53
2017-07-05T02:27:21.409Z,9.48
2017-07-05T02:29:51.160Z,7.70
2017-07-05T02:32:20.877Z,7.80
2017-07-05T02:34:50.609Z,7.70
2017-07-05T02:37:20.361Z,7.87
2017-07-05T02:39:50.081Z,8.15
2017-07-05T02:42:19.834Z,26.17
2017-07-05T02:44:49.560Z,8.35
2017-07-05T02:47:19.289Z,10.43
2017-07-05T02:49:49.041Z,7.60
2017-07-05T02:52:18.767Z,7.97
2017-07-05T02:54:48.494Z,8.65
2017-07-05T02:57:18.236Z,8.25
2017-07-05T02:59:48.013Z,10.02
2017-07-05T03:02:17.574Z,8.63
2017-07-05T03:04:47.302Z,7.20
2017-07-05T03:07:17.041Z,7.78
2017-07-05T03:09:46.771Z,7.35
2017-07-05T03:12:16.606Z,8.32
2017-07-05T03:14:46.363Z,8.57
2017-07-05T03:17:15.945Z,8.10
2017-07-05T03:19:45.670Z,8.90
2017-07-05T03:22:15.429Z,13.10
2017-07-05T03:24:45.166Z,12.18
2017-07-05T03:27:14.890Z,8.50
2017-07-05T03:29:44.617Z,9.73
2017-07-05T03:32:14.470Z,7.75
2017-07-05T03:34:44.189Z,8.45
2017-07-05T03:37:13.898Z,9.90
2017-07-05T03:39:43.654Z,8.93
2017-07-05T03:42:13.397Z,9.35
2017-07-05T03:44:43.144Z,14.45
2017-07-05T03:47:12.944Z,10.10
2017-07-05T03:49:42.661Z,8.20
2017-07-05T03:52:12.410Z,10.35
2017-07-05T03:54:42.149Z,9.68
2017-07-05T03:57:11.964Z,12.07
2017-07-05T03:59:41.681Z,14.93
2017-07-05T04:02:11.687Z,8.55
2017-07-05T04:04:41.422Z,14.93
2017-07-05T04:07:11.235Z,9.57
2017-07-05T04:09:40.968Z,10.68
2017-07-05T04:12:10.732Z,11.00
2017-07-05T04:14:40.499Z,10.70
2017-07-05T04:17:10.241Z,11.55
2017-07-05T04:19:42.054Z,13.95
2017-07-05T04:22:12.281Z,19.45
2017-07-05T04:24:42.662Z,9.23
2017-07-05T04:27:12.381Z,9.40
2017-07-05T04:29:42.131Z,10.43
2017-07-05T04:32:11.855Z,9.80
2017-07-05T04:34:41.613Z,9.43
2017-07-05T04:37:11.348Z,9.82
2017-07-05T04:39:41.075Z,10.10
2017-07-05T04:42:10.809Z,9.15
2017-07-05T04:44:40.549Z,10.48
2017-07-05T04:47:10.307Z,10.10
2017-07-05T04:49:40.050Z,9.10
2017-07-05T04:52:09.765Z,8.05
2017-07-05T04:54:39.515Z,14.13
2017-07-05T04:57:09.246Z,11.52
2017-07-05T04:59:39.013Z,12.23
2017-07-05T05:02:08.756Z,13.55
2017-07-05T05:04:38.494Z,10.65
2017-07-05T05:07:08.233Z,8.88
2017-07-05T05:09:37.990Z,10.73
2017-07-05T05:12:07.777Z,10.82
2017-07-05T05:14:37.514Z,12.02
2017-07-05T05:17:07.154Z,10.20
2017-07-05T05:19:36.858Z,8.73
2017-07-05T05:22:06.601Z,11.65
2017-07-05T05:24:36.335Z,9.43
2017-07-05T05:27:06.062Z,7.18
2017-07-05T05:29:35.781Z,7.68
2017-07-05T05:32:05.233Z,8.83
2017-07-05T05:34:34.690Z,7.20
2017-07-05T05:37:04.437Z,7.72
2017-07-05T05:39:33.895Z,6.70
2017-07-05T05:42:03.364Z,6.90
2017-07-05T05:44:32.818Z,11.40
2017-07-05T05:47:02.277Z,7.90
2017-07-05T05:49:31.723Z,8.40
2017-07-05T05:52:01.178Z,7.50
2017-07-05T05:54:30.743Z,8.67
2017-07-05T05:57:00.203Z,9.50
2017-07-05T05:59:29.683Z,13.77
2017-07-05T06:01:59.108Z,9.70
2017-07-05T06:07:12.327Z,23.10
2017-07-05T06:09:41.790Z,13.73
2017-07-05T06:12:11.248Z,18.53
2017-07-05T06:14:40.827Z,15.67
2017-07-05T06:17:10.286Z,22.27
2017-07-05T06:19:41.350Z,22.43
2017-07-05T06:22:10.805Z,37.03
2017-07-05T06:24:40.266Z,20.63
2017-07-05T06:27:09.724Z,19.80
2017-07-05T06:29:39.181Z,16.47
2017-07-05T06:32:08.636Z,25.17
2017-07-05T06:34:38.094Z,17.47
2017-07-05T06:37:07.570Z,13.70
2017-07-05T06:39:37.042Z,18.23
2017-07-05T06:42:06.498Z,11.93
2017-07-05T06:44:35.957Z,12.40
2017-07-05T06:47:05.438Z,9.70
2017-07-05T06:49:34.869Z,7.93
2017-07-05T06:52:04.323Z,9.60
2017-07-05T06:54:33.787Z,9.87
2017-07-05T06:57:03.223Z,10.93
2017-07-05T06:59:32.683Z,9.17
2017-07-05T07:02:02.222Z,14.30
2017-07-05T07:04:31.664Z,13.80
2017-07-05T07:07:01.133Z,15.73
2017-07-05T07:09:30.570Z,9.60
2017-07-05T07:12:00.014Z,9.83
2017-07-05T07:14:29.471Z,10.00
2017-07-05T07:16:58.926Z,16.73
2017-07-05T07:19:28.432Z,11.87
2017-07-05T07:21:57.889Z,9.17
2017-07-05T07:24:27.334Z,11.93
2017-07-05T07:26:56.781Z,8.80
2017-07-05T07:29:26.241Z,14.70
2017-07-05T07:31:55.689Z,9.00
2017-07-05T07:34:25.146Z,12.03
2017-07-05T07:36:54.649Z,8.80
2017-07-05T07:39:24.100Z,7.67
2017-07-05T07:41:53.541Z,6.90
2017-07-05T07:44:22.998Z,13.60
2017-07-05T07:46:52.473Z,5.90
2017-07-05T07:49:21.944Z,9.93
2017-07-05T07:51:51.439Z,10.43
2017-07-05T07:54:20.878Z,6.80
2017-07-05T07:56:50.330Z,10.53
2017-07-05T07:59:19.464Z,10.03
2017-07-05T08:01:48.914Z,6.70
2017-07-05T08:04:18.353Z,5.27
2017-07-05T08:06:47.806Z,6.83
2017-07-05T08:09:18.033Z,8.60
2017-07-05T08:11:47.498Z,9.77
2017-07-05T08:14:16.977Z,6.73
2017-07-05T08:16:46.425Z,5.93
2017-07-05T08:19:15.871Z,6.10
2017-07-05T08:21:45.312Z,4.90
2017-07-05T08:24:14.768Z,7.37
2017-07-05T08:26:44.214Z,7.00
2017-07-05T08:29:13.676Z,5.20
2017-07-05T08:31:43.127Z,4.97
2017-07-05T08:34:12.576Z,5.47
2017-07-05T08:36:42.021Z,8.93
2017-07-05T08:39:11.472Z,5.80
2017-07-05T08:41:40.932Z,5.60
2017-07-05T08:44:10.373Z,6.03
2017-07-05T08:46:39.830Z,10.37
2017-07-05T08:49:09.288Z,7.60
2017-07-05T08:51:38.728Z,5.10
2017-07-05T08:54:08.178Z,6.47
2017-07-05T08:56:37.635Z,7.70
2017-07-05T08:59:07.098Z,5.73
2017-07-05T09:01:36.546Z,7.47
2017-07-05T09:04:05.994Z,9.97
2017-07-05T09:06:35.462Z,15.70
2017-07-05T09:09:04.393Z,9.00
2017-07-05T09:11:33.857Z,11.23
2017-07-05T09:14:03.350Z,13.30
2017-07-05T09:16:32.794Z,19.80
2017-07-05T09:19:02.253Z,15.53
2017-07-05T09:21:31.722Z,25.83
2017-07-05T09:24:01.187Z,22.10
2017-07-05T09:26:30.298Z,29.37
2017-07-05T09:28:59.762Z,32.50
2017-07-05T09:31:29.255Z,17.03
2017-07-05T09:33:58.717Z,15.40
2017-07-05T09:36:28.177Z,14.77
2017-07-05T09:38:57.627Z,13.90
2017-07-05T09:41:27.102Z,12.30
2017-07-05T09:43:56.595Z,9.00
2017-07-05T09:46:26.274Z,9.13
2017-07-05T09:48:55.736Z,11.80
2017-07-05T09:51:25.207Z,16.53
2017-07-05T09:53:54.684Z,7.90
2017-07-05T09:56:24.142Z,12.63
2017-07-05T09:58:53.591Z,7.47
2017-07-05T10:01:23.040Z,13.80
2017-07-05T10:03:52.563Z,5.23
2017-07-05T10:06:22.030Z,4.00
2017-07-05T10:08:51.513Z,4.67
2017-07-05T10:11:20.972Z,3.80
2017-07-05T10:13:50.420Z,4.20
2017-07-05T10:16:19.872Z,4.60
2017-07-05T10:18:49.310Z,7.93
2017-07-05T10:21:18.761Z,2.97
2017-07-05T10:23:48.209Z,4.17
2017-07-05T10:26:17.698Z,3.77
2017-07-05T10:28:47.130Z,2.80
2017-07-05T10:31:16.594Z,2.87
2017-07-05T10:33:46.041Z,7.07
2017-07-05T10:36:15.505Z,3.10
2017-07-05T10:38:44.945Z,3.20
2017-07-05T10:41:14.397Z,5.33
2017-07-05T10:43:43.848Z,3.40
2017-07-05T10:46:13.294Z,3.43
2017-07-05T10:48:42.739Z,2.67
2017-07-05T10:51:12.181Z,3.10
2017-07-05T10:53:41.646Z,2.93
2017-07-05T10:56:11.115Z,4.20
2017-07-05T10:58:40.589Z,2.60
2017-07-05T11:01:10.036Z,4.20
2017-07-05T11:03:39.503Z,3.07
2017-07-05T11:06:08.958Z,3.73
2017-07-05T11:08:38.406Z,2.57
2017-07-05T11:11:07.870Z,2.80
2017-07-05T11:13:37.313Z,2.90
2017-07-05T11:16:06.765Z,3.80
2017-07-05T11:18:36.225Z,3.23
2017-07-05T11:21:05.693Z,3.00
2017-07-05T11:23:35.177Z,2.83
2017-07-05T11:26:04.681Z,3.20
2017-07-05T11:28:34.133Z,2.80
2017-07-05T11:31:03.577Z,3.10
2017-07-05T11:33:33.095Z,4.70
2017-07-05T11:36:02.781Z,3.43
2017-07-05T11:38:32.237Z,2.60
2017-07-05T11:41:01.699Z,3.20
2017-07-05T11:43:31.148Z,5.07
2017-07-05T11:46:00.628Z,2.60
2017-07-05T11:48:30.078Z,3.20
2017-07-05T11:50:59.527Z,2.53
2017-07-05T11:53:28.990Z,6.63
2017-07-05T11:55:58.437Z,2.83
2017-07-05T11:58:27.886Z,3.17
2017-07-05T12:00:57.342Z,2.33
2017-07-05T12:03:26.794Z,7.33
2017-07-05T12:05:56.269Z,4.10
2017-07-05T12:08:25.705Z,2.80
2017-07-05T12:10:55.188Z,3.37
2017-07-05T12:13:24.682Z,3.07
2017-07-05T12:15:54.165Z,2.37
2017-07-05T12:18:23.645Z,2.77
2017-07-05T12:20:53.086Z,4.90
2017-07-05T12:23:22.545Z,2.67
2017-07-05T12:25:52.021Z,2.40
2017-07-05T12:28:21.469Z,2.73
2017-07-05T12:30:50.913Z,3.40
2017-07-05T12:33:20.357Z,2.30
2017-07-05T12:35:49.813Z,2.27
2017-07-05T12:38:19.260Z,2.40
2017-07-05T12:40:48.702Z,2.53
2017-07-05T12:43:18.015Z,2.40
2017-07-05T12:45:47.447Z,2.33
2017-07-05T12:48:16.930Z,2.60
2017-07-05T12:50:46.360Z,2.40
2017-07-05T12:53:15.822Z,4.20
2017-07-05T12:55:45.266Z,2.23
2017-07-05T12:58:14.723Z,2.93
2017-07-05T13:00:44.173Z,2.00
2017-07-05T13:03:13.648Z,2.33
2017-07-05T13:05:43.077Z,2.40
2017-07-05T13:08:12.359Z,2.00
2017-07-05T13:10:41.879Z,2.87
2017-07-05T13:13:11.309Z,3.07
2017-07-05T13:15:40.751Z,3.00
2017-07-05T13:18:10.212Z,3.10
2017-07-05T13:20:39.675Z,2.27
2017-07-05T13:23:09.124Z,4.03
2017-07-05T13:25:38.570Z,1.90
2017-07-05T13:28:08.023Z,2.10
2017-07-05T13:30:37.469Z,2.13
2017-07-05T13:33:06.937Z,2.07
2017-07-05T13:35:36.441Z,4.50
2017-07-05T13:38:05.887Z,4.67
2017-07-05T13:40:35.319Z,1.80
2017-07-05T13:43:04.766Z,2.43
2017-07-05T13:45:34.215Z,2.60
2017-07-05T13:48:03.675Z,5.10
2017-07-05T13:50:33.155Z,2.80
2017-07-05T13:53:02.607Z,2.40
2017-07-05T13:55:31.845Z,2.20
2017-07-05T13:58:01.293Z,2.20
2017-07-05T14:00:30.771Z,2.03
2017-07-05T14:03:00.221Z,5.83
2017-07-05T14:05:29.681Z,2.23
2017-07-05T14:07:59.182Z,2.03
2017-07-05T14:10:29.306Z,1.80
2017-07-05T14:12:58.783Z,2.30
2017-07-05T14:15:28.494Z,2.10
2017-07-05T14:17:57.965Z,2.03
2017-07-05T14:20:27.397Z,2.77
2017-07-05T14:22:56.853Z,2.00
2017-07-05T14:25:26.313Z,4.27
2017-07-05T14:27:55.774Z,2.87
2017-07-05T14:30:25.245Z,2.20
2017-07-05T14:32:55.537Z,2.43
2017-07-05T14:35:24.994Z,7.87
2017-07-05T14:37:54.436Z,2.13
2017-07-05T14:40:23.931Z,2.50
2017-07-05T14:42:53.367Z,2.90
2017-07-05T14:45:22.857Z,3.80
2017-07-05T14:47:52.382Z,2.13
2017-07-05T14:50:21.875Z,2.20
2017-07-05T14:52:52.209Z,4.67
2017-07-05T14:55:21.719Z,2.27
2017-07-05T14:57:51.182Z,2.40
2017-07-05T15:00:20.741Z,2.90
2017-07-05T15:02:50.241Z,2.00
2017-07-05T15:05:19.691Z,6.33
2017-07-05T15:07:49.469Z,2.30
2017-07-05T15:10:19.252Z,3.07
2017-07-05T15:12:48.777Z,2.83
2017-07-05T15:15:18.343Z,2.10
2017-07-05T15:17:48.084Z,4.20
2017-07-05T15:20:17.535Z,3.23
2017-07-05T15:22:47.458Z,2.20
2017-07-05T15:25:17.333Z,3.27
2017-07-05T15:27:47.428Z,2.50
2017-07-05T15:30:17.406Z,1.90
2017-07-05T15:32:46.880Z,1.73
2017-07-05T15:35:16.515Z,2.50
2017-07-05T15:37:45.975Z,2.03
2017-07-05T15:40:15.448Z,2.40
2017-07-05T15:42:44.897Z,3.40
2017-07-05T15:45:14.091Z,3.27
2017-07-05T15:47:43.921Z,3.73
2017-07-05T15:50:13.405Z,2.77
2017-07-05T15:52:42.841Z,1.70
2017-07-05T15:55:12.366Z,2.17
2017-07-05T15:57:41.886Z,2.83
2017-07-05T16:00:11.354Z,2.17
2017-07-05T16:02:40.777Z,3.53
2017-07-05T16:05:10.305Z,6.80
2017-07-05T16:07:39.741Z,4.40
2017-07-05T16:10:09.228Z,5.37
2017-07-05T16:12:38.680Z,4.27
2017-07-05T16:15:08.262Z,4.10
2017-07-05T16:17:37.709Z,5.90
2017-07-05T16:20:07.226Z,2.07
2017-07-05T16:22:36.658Z,2.90
2017-07-05T16:25:06.127Z,2.30
2017-07-05T16:27:35.590Z,3.00
2017-07-05T16:30:05.039Z,2.40
2017-07-05T16:32:34.510Z,1.90
2017-07-05T16:35:04.145Z,1.87
2017-07-05T16:37:33.584Z,3.43
2017-07-05T16:40:03.067Z,5.40
2017-07-05T16:42:32.511Z,4.77
2017-07-05T16:45:02.046Z,2.50
2017-07-05T16:47:31.498Z,2.70
2017-07-05T16:50:00.960Z,4.40
2017-07-05T16:52:30.405Z,5.10
2017-07-05T16:54:59.862Z,4.43
2017-07-05T16:57:29.321Z,2.27
2017-07-05T16:59:58.774Z,5.93
2017-07-05T17:02:28.229Z,10.50
2017-07-05T17:04:57.685Z,5.83
2017-07-05T17:07:27.133Z,5.60
2017-07-05T17:09:56.589Z,1.93
2017-07-05T17:12:26.044Z,2.03
2017-07-05T17:14:55.363Z,2.37
2017-07-05T17:17:24.813Z,4.10
2017-07-05T17:19:54.262Z,5.27
2017-07-05T17:22:23.364Z,3.57
2017-07-05T17:24:52.805Z,2.57
2017-07-05T17:27:22.382Z,5.30
2017-07-05T17:29:51.638Z,2.53
2017-07-05T17:32:21.082Z,2.60
2017-07-05T17:34:50.565Z,2.50
2017-07-05T17:37:20.073Z,3.87
2017-07-05T17:39:49.520Z,2.70
2017-07-05T17:42:18.984Z,3.67
2017-07-05T17:44:48.434Z,2.60
2017-07-05T17:47:17.865Z,2.40
2017-07-05T17:49:47.329Z,3.47
2017-07-05T17:52:16.936Z,6.90
2017-07-05T17:54:46.376Z,2.40
2017-07-05T17:57:15.833Z,4.50
2017-07-05T17:59:45.270Z,2.57
2017-07-05T18:02:14.749Z,4.77
2017-07-05T18:04:44.216Z,2.90
2017-07-05T18:07:13.760Z,3.60
2017-07-05T18:09:43.205Z,3.07
2017-07-05T18:12:12.683Z,2.90
2017-07-05T18:14:42.130Z,3.40
2017-07-05T18:17:11.594Z,4.73
2017-07-05T18:19:41.081Z,2.70
2017-07-05T18:22:10.525Z,5.30
2017-07-05T18:24:39.997Z,8.40
2017-07-05T18:27:09.482Z,3.37
2017-07-05T18:29:38.910Z,5.97
2017-07-05T18:32:08.374Z,11.00
2017-07-05T18:34:37.835Z,4.73
2017-07-05T18:37:06.957Z,3.10
2017-07-05T18:39:36.411Z,3.23
2017-07-05T18:42:05.902Z,8.57
2017-07-05T18:44:35.341Z,3.33
2017-07-05T18:47:04.716Z,5.90
2017-07-05T18:49:34.161Z,6.80
2017-07-05T18:52:03.601Z,6.70
2017-07-05T18:54:33.053Z,4.23
2017-07-05T18:57:02.531Z,3.10
2017-07-05T18:59:31.975Z,8.03
2017-07-05T19:02:01.447Z,5.83
2017-07-05T19:04:30.889Z,5.03
2017-07-05T19:07:00.331Z,3.50
2017-07-05T19:09:29.790Z,3.60
2017-07-05T19:11:59.233Z,3.53
2017-07-05T19:14:28.702Z,10.40
2017-07-05T19:16:58.174Z,4.10
2017-07-05T19:19:27.618Z,11.33
2017-07-05T19:21:57.175Z,3.93
2017-07-05T19:24:26.626Z,6.10
2017-07-05T19:26:56.084Z,6.13
2017-07-05T19:29:25.527Z,5.93
2017-07-05T19:31:55.029Z,5.03
2017-07-05T19:34:24.530Z,5.90
2017-07-05T19:36:53.962Z,4.37
2017-07-05T19:39:23.422Z,5.50
2017-07-05T19:41:52.915Z,4.30
2017-07-05T19:44:22.349Z,4.97
2017-07-05T19:46:51.798Z,4.47
2017-07-05T19:49:21.257Z,12.30
2017-07-05T19:51:50.709Z,11.07
2017-07-05T19:54:20.238Z,39.00
2017-07-05T19:56:49.902Z,12.13
2017-07-05T19:59:19.362Z,15.37
2017-07-05T20:01:48.815Z,28.17
2017-07-05T20:04:18.312Z,21.50
2017-07-05T20:06:47.762Z,17.33
2017-07-05T20:09:17.249Z,17.07
2017-07-05T20:11:46.722Z,9.47
2017-07-05T20:14:16.183Z,12.20
2017-07-05T20:16:45.633Z,9.80
2017-07-05T20:19:15.086Z,6.90
2017-07-05T20:21:44.572Z,10.80
2017-07-05T20:24:14.041Z,13.13
2017-07-05T20:26:43.500Z,8.47
2017-07-05T20:29:12.953Z,16.37
2017-07-05T20:31:42.489Z,8.83
2017-07-05T20:34:11.583Z,13.97
2017-07-05T20:36:41.050Z,7.47
2017-07-05T20:39:10.518Z,5.03
2017-07-05T20:41:39.962Z,9.70
2017-07-05T20:44:09.425Z,6.50
2017-07-05T20:46:38.876Z,6.40
2017-07-05T20:49:08.370Z,10.63
2017-07-05T20:51:37.817Z,8.60
2017-07-05T20:54:07.300Z,11.30
2017-07-05T20:56:36.767Z,13.47
2017-07-05T20:59:06.246Z,13.83
2017-07-05T21:01:35.704Z,11.47
2017-07-05T21:04:05.222Z,11.40
2017-07-05T21:06:34.685Z,14.20
2017-07-05T21:09:03.564Z,7.30
2017-07-05T21:11:33.018Z,8.83
2017-07-05T21:14:02.466Z,8.80
2017-07-05T21:16:31.928Z,8.67
2017-07-05T21:19:01.417Z,9.47
2017-07-05T21:21:30.966Z,20.93
2017-07-05T21:24:00.420Z,14.80
2017-07-05T21:26:30.063Z,14.83
2017-07-05T21:28:59.505Z,11.40
2017-07-05T21:31:28.978Z,4.70
2017-07-05T21:33:58.464Z,11.17
2017-07-05T21:36:27.584Z,8.20
2017-07-05T21:38:57.130Z,8.63
2017-07-05T21:41:26.275Z,5.37
2017-07-05T21:43:55.734Z,7.70
2017-07-05T21:46:25.189Z,6.03
2017-07-05T21:48:54.659Z,8.00
2017-07-05T21:51:24.164Z,20.83
2017-07-05T21:53:53.612Z,5.37
2017-07-05T21:56:23.092Z,10.03
2017-07-05T21:58:52.561Z,4.73
2017-07-05T22:01:22.014Z,8.40
2017-07-05T22:03:51.476Z,5.40
2017-07-05T22:06:20.319Z,6.37
2017-07-05T22:08:49.850Z,6.90
2017-07-05T22:11:19.354Z,9.40
2017-07-05T22:13:48.856Z,7.33
2017-07-05T22:16:18.194Z,10.57
2017-07-05T22:18:47.646Z,6.40
2017-07-05T22:21:17.112Z,5.83
2017-07-05T22:23:46.571Z,10.40
2017-07-05T22:26:16.044Z,10.03
2017-07-05T22:28:45.500Z,7.13
2017-07-05T22:31:14.953Z,10.27
2017-07-05T22:33:44.417Z,6.70
2017-07-05T22:36:13.895Z,5.53
2017-07-05T22:38:43.218Z,9.67
2017-07-05T22:41:12.340Z,5.47
2017-07-05T22:43:41.785Z,6.17
2017-07-05T22:46:11.061Z,8.60
2017-07-05T22:48:40.537Z,11.27
2017-07-05T22:51:09.995Z,6.90
2017-07-05T22:53:39.444Z,7.33
2017-07-05T22:56:08.916Z,8.00
2017-07-05T22:58:38.209Z,8.17
2017-07-05T23:01:07.680Z,12.43
2017-07-05T23:03:37.139Z,9.53
2017-07-05T23:06:06.591Z,9.47
2017-07-05T23:08:36.044Z,6.10
2017-07-05T23:11:05.505Z,7.50
2017-07-05T23:13:34.964Z,6.13
2017-07-05T23:16:04.411Z,5.73
2017-07-05T23:18:33.881Z,5.70
2017-07-05T23:21:03.321Z,8.20
2017-07-05T23:23:32.765Z,7.10
2017-07-05T23:26:02.227Z,7.10
2017-07-05T23:28:31.674Z,5.90
2017-07-05T23:31:01.129Z,7.23
2017-07-05T23:33:30.577Z,6.43
2017-07-05T23:36:00.017Z,10.73
2017-07-05T23:38:29.465Z,6.63
2017-07-05T23:40:58.901Z,6.20
2017-07-05T23:43:28.333Z,8.70
2017-07-05T23:45:57.773Z,7.20
2017-07-05T23:48:27.225Z,8.27
2017-07-05T23:50:56.690Z,8.63
2017-07-05T23:53:26.233Z,5.90
2017-07-05T23:55:55.669Z,9.60
2017-07-05T23:58:25.106Z,7.20
